Time;durP1;ratioP1;P1;durP2;ratioP2;P2;SDS_P1;SDS_P2;PMS_P1;PMS_P2;Temp;Humidity;BMP_temperature;BMP_pressure;BME280_temperature;BME280_humidity;BME280_pressure;Samples;Min_cycle;Max_cycle;Signal;HPM_P1;HPM_P2
2023/06/20 00:01:13;;;;;;;29.13;3.77;;;;;;;24.02;59.99;99233.97;7312062;19;129190;-41
2023/06/20 00:03:38;;;;;;;23.97;3.23;;;;;;;23.99;59.58;99221.16;7312572;19;129417;-41
2023/06/20 00:06:03;;;;;;;21.73;3.27;;;;;;;24.01;59.63;99232.34;7310728;19;129620;-41
2023/06/20 00:08:29;;;;;;;51.43;5.17;;;;;;;24.01;59.24;99221.84;7310581;19;129347;-39
2023/06/20 00:10:54;;;;;;;66.83;6.67;;;;;;;24.01;59.94;99224.47;7304935;19;130513;-40
2023/06/20 00:13:19;;;;;;;31.67;3.53;;;;;;;24.02;59.62;99223.47;7310915;19;129214;-41
2023/06/20 00:15:45;;;;;;;34.13;4.43;;;;;;;23.91;59.90;99207.19;7311602;19;129467;-38
2023/06/20 00:18:10;;;;;;;26.88;3.72;;;;;;;24.01;59.32;99227.09;7311476;19;129241;-41
2023/06/20 00:20:36;;;;;;;21.97;3.33;;;;;;;24.02;58.97;99223.47;7307599;19;129312;-41
2023/06/20 00:23:02;;;;;;;35.00;3.77;;;;;;;24.02;59.89;99218.22;7312383;19;130306;-42
2023/06/20 00:25:28;;;;;;;31.08;3.78;;;;;;;23.99;59.43;99218.56;7310107;19;129133;-40
2023/06/20 00:27:53;;;;;;;59.20;5.80;;;;;;;24.02;59.66;99212.13;7311321;19;128902;-40
2023/06/20 00:30:18;;;;;;;25.77;3.72;;;;;;;24.01;59.62;99211.34;7312600;19;129033;-41
2023/06/20 00:32:44;;;;;;;27.87;3.60;;;;;;;24.01;59.57;99216.59;7318350;19;129817;-40
2023/06/20 00:35:09;;;;;;;34.10;4.37;;;;;;;24.01;59.63;99210.50;7318668;19;128838;-42
2023/06/20 00:37:36;;;;;;;30.30;4.13;;;;;;;24.01;59.62;99207.88;7318821;19;129443;-41
2023/06/20 00:40:07;;;;;;;28.83;3.92;;;;;;;24.00;59.89;99209.66;7316572;19;129452;-42
2023/06/20 00:42:33;;;;;;;26.30;3.70;;;;;;;24.00;59.70;99201.78;7312497;19;130409;-41
2023/06/20 00:44:58;;;;;;;31.00;3.97;;;;;;;24.01;59.34;99208.72;7318292;19;129327;-40
2023/06/20 00:47:24;;;;;;;31.20;4.00;;;;;;;24.01;59.61;99206.09;7319722;19;128835;-40
2023/06/20 00:49:51;;;;;;;30.07;3.63;;;;;;;23.99;60.04;99202.78;7314433;19;129475;-42
2023/06/20 00:52:19;;;;;;;16.75;3.33;;;;;;;23.99;59.73;99205.41;7317102;19;129233;-41
2023/06/20 00:54:47;;;;;;;45.45;5.32;;;;;;;24.01;59.53;99211.34;7318303;19;129741;-40
2023/06/20 00:57:14;;;;;;;20.63;3.53;;;;;;;24.00;59.31;99204.41;7317252;19;129319;-40
2023/06/20 00:59:47;;;;;;;24.27;3.55;;;;;;;24.01;59.87;99213.97;7316060;19;130099;-40
2023/06/20 01:02:16;;;;;;;29.50;3.78;;;;;;;24.02;59.26;99204.25;7317705;19;130065;-41
2023/06/20 01:04:44;;;;;;;24.48;3.72;;;;;;;24.00;59.40;99203.59;7317815;19;129185;-41
2023/06/20 01:07:37;;;;;;;55.20;5.43;;;;;;;24.00;59.60;99198.34;7316977;19;129902;-42
2023/06/20 01:10:16;;;;;;;15.77;3.17;;;;;;;23.96;59.47;99187.34;7314779;19;130533;-39
2023/06/20 01:12:50;;;;;;;40.80;4.45;;;;;;;24.00;60.04;99193.91;7316321;19;129819;-40
2023/06/20 01:15:26;;;;;;;25.67;3.35;;;;;;;24.01;60.13;99189.50;7319085;19;128733;-40
2023/06/20 01:18:01;;;;;;;45.40;5.25;;;;;;;24.01;60.08;99186.88;7317038;19;129689;-41
2023/06/20 01:20:52;;;;;;;25.40;3.63;;;;;;;24.03;60.22;99187.53;7315377;19;130323;-42
2023/06/20 01:23:31;;;;;;;49.15;5.22;;;;;;;24.00;59.80;99183.41;7316874;19;129230;-39
2023/06/20 01:26:04;;;;;;;26.23;3.92;;;;;;;24.02;59.96;99185.88;7315562;19;128954;-41
2023/06/20 01:28:43;;;;;;;24.75;3.65;;;;;;;23.93;59.58;99164.00;7315691;19;129432;-41
2023/06/20 01:31:11;;;;;;;34.22;4.13;;;;;;;23.99;59.80;99176.53;7314498;19;129446;-41
2023/06/20 01:34:07;;;;;;;40.30;4.32;;;;;;;24.02;60.14;99175.38;7316767;19;129713;-40
2023/06/20 01:36:36;;;;;;;41.15;4.75;;;;;;;23.89;60.04;99154.84;7314370;19;129078;-37
2023/06/20 01:39:08;;;;;;;28.70;4.38;;;;;;;24.00;60.01;99170.28;7315931;19;129419;-40
2023/06/20 01:41:38;;;;;;;26.35;3.75;;;;;;;24.01;59.56;99168.47;7315788;19;129577;-40
2023/06/20 01:44:07;;;;;;;24.30;3.72;;;;;;;24.01;59.76;99171.13;7315791;19;129314;-41
2023/06/20 01:46:33;;;;;;;26.35;3.78;;;;;;;24.01;59.63;99169.31;7315765;19;128832;-41
2023/06/20 01:49:00;;;;;;;31.87;4.03;;;;;;;24.02;59.81;99165.69;7313990;19;129094;-41
2023/06/20 01:51:28;;;;;;;21.73;3.55;;;;;;;24.02;59.66;99155.19;7314160;19;129910;-42
2023/06/20 01:53:55;;;;;;;30.27;4.05;;;;;;;24.02;59.91;99160.44;7316209;19;129247;-42
2023/06/20 01:56:20;;;;;;;;;;;;;;;24.10;60.00;99152.53;7315199;19;128931;-39
2023/06/20 01:58:48;;;;;;;40.65;4.68;;;;;;;24.02;59.53;99159.63;7316033;19;129303;-41
2023/06/20 02:01:14;;;;;;;46.17;4.85;;;;;;;24.02;59.24;99163.06;7307728;19;130780;-40
2023/06/20 02:03:41;;;;;;;60.15;6.63;;;;;;;24.00;59.28;99158.94;7300930;19;131374;-41
2023/06/20 02:06:10;;;;;;;13.32;3.00;;;;;;;24.01;59.61;99165.84;7309134;19;130586;-39
2023/06/20 02:08:37;;;;;;;40.95;4.95;;;;;;;23.94;59.38;99149.91;7315187;19;128921;-39
2023/06/20 02:11:04;;;;;;;27.08;4.15;;;;;;;24.05;59.30;99164.53;7312645;19;129258;-41
2023/06/20 02:13:29;;;;;;;29.83;4.15;;;;;;;24.04;59.17;99158.47;7315969;19;131279;-41
2023/06/20 02:15:57;;;;;;;40.40;4.77;;;;;;;24.05;59.14;99157.47;7314661;19;128961;-40
2023/06/20 02:18:23;;;;;;;70.18;6.68;;;;;;;23.94;59.95;99138.59;7314399;19;129021;-39
2023/06/20 02:20:53;;;;;;;21.23;3.40;;;;;;;24.05;59.90;99160.09;7311812;19;130157;-38
2023/06/20 02:23:25;;;;;;;24.42;4.00;;;;;;;23.96;59.85;99149.75;7315382;19;129310;-41
2023/06/20 02:25:52;;;;;;;34.33;4.18;;;;;;;24.03;59.80;99162.06;7315551;19;129194;-41
2023/06/20 02:28:20;;;;;;;36.08;4.70;;;;;;;24.01;59.33;99153.56;7314505;19;130151;-41
2023/06/20 02:30:47;;;;;;;56.55;5.80;;;;;;;24.03;59.62;99148.94;7310360;19;129490;-39
2023/06/20 02:33:14;;;;;;;10.23;2.63;;;;;;;24.03;59.02;99146.31;7314222;19;130428;-41
2023/06/20 02:35:42;;;;;;;29.70;4.25;;;;;;;24.05;59.82;99151.41;7314554;19;129263;-41
2023/06/20 02:38:09;;;;;;;85.47;6.95;;;;;;;24.02;59.28;99149.94;7311600;19;129513;-39
2023/06/20 02:40:36;;;;;;;38.70;4.55;;;;;;;24.02;59.33;99144.69;7312974;19;130031;-41
2023/06/20 02:43:01;;;;;;;57.35;5.43;;;;;;;24.03;59.63;99156.81;7313682;19;130411;-39
2023/06/20 02:45:27;;;;;;;79.30;6.77;;;;;;;24.02;59.39;99160.44;7311613;19;130377;-39
2023/06/20 02:48:21;;;;;;;81.03;6.72;;;;;;;24.03;59.97;99167.31;7310697;19;128858;-41
2023/06/20 02:51:07;;;;;;;27.05;3.88;;;;;;;24.01;59.64;99161.44;7311536;19;130150;-41
2023/06/20 02:53:49;;;;;;;34.95;4.10;;;;;;;24.01;60.15;99168.47;7312066;19;129674;-41
2023/06/20 02:56:15;;;;;;;38.05;4.20;;;;;;;23.98;59.50;99169.63;7315065;19;129112;-40
2023/06/20 02:58:44;;;;;;;;;;;;;;;24.03;59.82;99172.56;7311961;19;130556;-40
2023/06/20 03:01:10;;;;;;;;;;;;;;;23.97;60.03;99157.47;7315096;19;129205;-40
2023/06/20 03:03:40;;;;;;;47.78;4.82;;;;;;;23.97;59.77;99167.97;7311858;19;129206;-42
2023/06/20 03:06:07;;;;;;;48.92;4.82;;;;;;;23.96;59.49;99176.84;7312638;19;129481;-39
2023/06/20 03:08:33;;;;;;;88.03;7.28;;;;;;;23.96;59.44;99176.84;7310811;19;128913;-42
2023/06/20 03:11:00;;;;;;;36.25;4.07;;;;;;;23.93;60.00;99181.59;7312590;19;129097;-38
2023/06/20 03:13:27;;;;;;;69.32;6.50;;;;;;;23.95;59.48;99185.69;7313068;19;130027;-36
2023/06/20 03:15:52;;;;;;;34.53;4.22;;;;;;;23.94;59.85;99184.06;7314409;19;128916;-40
2023/06/20 03:18:18;;;;;;;57.07;5.03;;;;;;;23.94;60.35;99189.31;7311716;19;130158;-40
2023/06/20 03:20:45;;;;;;;29.65;4.18;;;;;;;23.84;59.92;99167.63;7312388;19;129713;-40
2023/06/20 03:23:11;;;;;;;24.42;3.85;;;;;;;23.94;59.93;99189.31;7313886;19;130355;-40
2023/06/20 03:25:37;;;;;;;29.38;3.95;;;;;;;23.94;60.20;99189.31;7308392;19;130540;-40
2023/06/20 03:28:02;;;;;;;61.70;5.73;;;;;;;23.94;59.90;99186.69;7313278;19;129491;-39
2023/06/20 03:30:28;;;;;;;35.80;3.88;;;;;;;23.95;59.87;99184.84;7310782;19;129445;-40
2023/06/20 03:32:53;;;;;;;41.20;4.67;;;;;;;23.95;59.90;99183.06;7312945;19;129306;-41
2023/06/20 03:35:18;;;;;;;39.33;4.57;;;;;;;23.93;60.00;99177.13;7313128;19;129000;-38
2023/06/20 03:37:44;;;;;;;44.75;4.85;;;;;;;23.95;59.63;99196.19;7311959;19;128635;-40
2023/06/20 03:40:10;;;;;;;27.97;4.13;;;;;;;23.94;59.89;99188.47;7310942;19;129730;-38
2023/06/20 03:42:35;;;;;;;30.53;4.00;;;;;;;23.84;59.84;99175.50;7314073;19;129170;-39
2023/06/20 03:45:00;;;;;;;56.40;5.50;;;;;;;23.93;59.89;99192.09;7310477;19;129001;-41
2023/06/20 03:47:26;;;;;;;26.67;3.70;;;;;;;23.96;59.88;99191.75;7312968;19;129237;-40
2023/06/20 03:49:51;;;;;;;50.85;5.07;;;;;;;23.95;60.17;99196.19;7308940;19;129524;-39
2023/06/20 03:52:16;;;;;;;34.60;4.40;;;;;;;23.87;60.11;99180.44;7311090;19;130523;-39
2023/06/20 03:54:42;;;;;;;53.85;5.47;;;;;;;23.93;59.70;99192.88;7311592;19;129160;-40
2023/06/20 03:57:07;;;;;;;35.28;4.32;;;;;;;23.86;59.92;99177.97;7312662;19;128819;-41
2023/06/20 03:59:32;;;;;;;50.60;4.83;;;;;;;23.94;59.88;99189.31;7309467;19;129308;-41
2023/06/20 04:01:58;;;;;;;60.57;6.07;;;;;;;23.96;59.89;99194.38;7300177;19;132246;-40
2023/06/20 04:04:23;;;;;;;106.67;8.70;;;;;;;23.96;60.27;99197.00;7295199;19;131421;-41
2023/06/20 04:06:49;;;;;;;46.30;5.20;;;;;;;23.96;59.87;99197.84;7307367;19;129394;-40
2023/06/20 04:09:18;;;;;;;135.37;10.07;;;;;;;23.96;60.21;99203.09;7308678;19;130214;-40
2023/06/20 04:11:44;;;;;;;57.95;5.70;;;;;;;23.96;59.60;99197.00;7307459;19;130440;-39
2023/06/20 04:14:10;;;;;;;58.45;5.63;;;;;;;23.96;60.25;99203.09;7311246;19;128880;-39
2023/06/20 04:16:36;;;;;;;31.53;4.00;;;;;;;23.96;59.90;99208.34;7308642;19;129203;-38
2023/06/20 04:19:01;;;;;;;17.87;3.87;;;;;;;23.97;59.63;99209.97;7309937;19;129612;-40
2023/06/20 04:21:27;;;;;;;60.70;5.93;;;;;;;23.95;59.98;99211.94;7304986;19;129507;-41
2023/06/20 04:23:52;;;;;;;87.78;6.90;;;;;;;23.98;59.85;99208.22;7309203;19;129454;-40
2023/06/20 04:26:18;;;;;;;33.40;4.50;;;;;;;23.98;59.61;99208.22;7310993;19;129369;-40
2023/06/20 04:28:43;;;;;;;70.85;6.35;;;;;;;23.98;60.18;99213.47;7308944;19;129337;-40
2023/06/20 04:31:08;;;;;;;39.00;4.50;;;;;;;23.94;60.09;99207.69;7308302;19;129276;-40
2023/06/20 04:33:34;;;;;;;84.63;6.83;;;;;;;23.96;59.54;99210.97;7311682;19;129991;-38
2023/06/20 04:35:59;;;;;;;23.45;3.80;;;;;;;23.96;59.53;99210.97;7302957;19;130793;-40
2023/06/20 04:38:24;;;;;;;40.30;4.13;;;;;;;23.94;60.29;99205.06;7309335;19;129002;-40
2023/06/20 04:40:50;;;;;;;52.42;5.07;;;;;;;23.97;59.86;99209.16;7308776;19;129994;-38
2023/06/20 04:43:15;;;;;;;35.73;4.07;;;;;;;23.97;60.02;99209.16;7311829;19;130057;-41
2023/06/20 04:45:41;;;;;;;29.57;3.83;;;;;;;23.97;59.99;99214.41;7310627;19;129177;-39
2023/06/20 04:48:06;;;;;;;59.57;5.43;;;;;;;23.84;59.95;99199.16;7305411;19;129684;-39
2023/06/20 04:50:32;;;;;;;53.30;4.93;;;;;;;23.97;59.60;99217.03;7299152;19;130839;-39
2023/06/20 04:52:57;;;;;;;37.63;4.60;;;;;;;23.98;59.66;99213.47;7311692;19;129509;-39
2023/06/20 04:55:22;;;;;;;32.97;4.10;;;;;;;23.97;59.85;99209.16;7309953;19;129266;-43
2023/06/20 04:57:48;;;;;;;73.40;6.33;;;;;;;23.98;59.51;99211.63;7298394;19;129536;-41
2023/06/20 05:00:15;;;;;;;58.43;5.27;;;;;;;23.95;59.76;99209.31;7304356;19;130431;-38
2023/06/20 05:02:42;;;;;;;;;;;;;;;24.05;60.19;99219.69;7311533;19;128908;-40
2023/06/20 05:05:08;;;;;;;60.92;5.72;;;;;;;23.97;59.38;99215.22;7308893;19;129344;-39
2023/06/20 05:07:34;;;;;;;33.10;3.65;;;;;;;23.96;60.07;99224.09;7308547;19;129167;-41
2023/06/20 05:09:59;;;;;;;66.67;5.70;;;;;;;23.95;60.18;99225.06;7308455;19;129265;-39
2023/06/20 05:12:24;;;;;;;34.35;4.00;;;;;;;23.96;59.80;99231.97;7307498;19;130546;-40
2023/06/20 05:14:50;;;;;;;37.27;4.37;;;;;;;23.96;59.66;99239.84;7308844;19;129208;-38
2023/06/20 05:17:15;;;;;;;52.97;4.80;;;;;;;23.96;59.70;99226.72;7311937;19;129502;-39
2023/06/20 05:19:41;;;;;;;51.30;4.80;;;;;;;23.97;59.34;99235.41;7312054;19;130259;-40
2023/06/20 05:22:06;;;;;;;29.05;3.75;;;;;;;23.94;59.79;99231.31;7318107;19;130164;-40
2023/06/20 05:24:31;;;;;;;14.52;3.08;;;;;;;23.93;60.06;99227.03;7313538;19;129072;-40
2023/06/20 05:26:57;;;;;;;40.25;4.07;;;;;;;23.96;59.90;99234.59;7315798;19;129068;-39
2023/06/20 05:29:22;;;;;;;42.07;4.10;;;;;;;23.96;59.80;99234.59;7314685;19;129186;-40
2023/06/20 05:31:47;;;;;;;80.37;6.43;;;;;;;23.96;60.12;99234.59;7312095;19;129152;-42
2023/06/20 05:34:13;;;;;;;99.57;7.38;;;;;;;23.98;59.46;99237.09;7313098;19;129006;-42
2023/06/20 05:36:38;;;;;;;48.27;4.57;;;;;;;23.96;60.13;99234.59;7316480;19;129136;-39
2023/06/20 05:39:04;;;;;;;33.55;3.72;;;;;;;23.92;59.43;99233.28;7315091;19;129670;-40
2023/06/20 05:41:29;;;;;;;23.58;4.38;;;;;;;23.97;59.90;99227.53;7312553;19;129478;-40
2023/06/20 05:43:54;;;;;;;30.50;4.53;;;;;;;23.98;59.51;99231.84;7315246;19;130020;-40
2023/06/20 05:46:20;;;;;;;56.85;5.70;;;;;;;23.91;60.15;99209.81;7314817;19;129824;-40
2023/06/20 05:48:48;;;;;;;42.10;5.10;;;;;;;24.01;59.94;99223.63;7315044;19;129264;-38
2023/06/20 05:51:14;;;;;;;40.63;4.85;;;;;;;24.04;60.24;99229.38;7313393;19;128942;-39
2023/06/20 05:53:41;;;;;;;35.43;4.80;;;;;;;23.96;59.43;99218.03;7316037;19;128877;-39
2023/06/20 05:56:11;;;;;;;45.28;4.88;;;;;;;24.06;60.20;99239.72;7315312;19;130366;-41
2023/06/20 05:58:37;;;;;;;47.08;4.97;;;;;;;24.06;59.78;99232.66;7314946;19;130860;-40
2023/06/20 06:01:03;;;;;;;39.23;5.17;;;;;;;24.08;60.29;99241.19;7315075;19;129657;-40
2023/06/20 06:03:32;;;;;;;55.42;5.72;;;;;;;24.09;60.50;99234.97;7314509;19;129066;-41
2023/06/20 06:05:57;;;;;;;96.25;8.85;;;;;;;24.11;59.97;99227.72;7300798;19;130144;-40
2023/06/20 06:08:22;;;;;;;91.53;8.13;;;;;;;24.13;60.18;99232.84;7298471;19;131723;-40
2023/06/20 06:10:48;;;;;;;39.70;5.00;;;;;;;24.14;60.43;99226.59;7303376;19;128939;-39
2023/06/20 06:13:13;;;;;;;41.90;5.20;;;;;;;24.16;60.24;99224.63;7316016;19;129064;-41
2023/06/20 06:15:38;;;;;;;48.00;5.53;;;;;;;24.17;59.05;99227.06;7314268;19;129185;-37
2023/06/20 06:18:04;;;;;;;41.60;5.27;;;;;;;24.16;59.49;99214.91;7315657;19;129143;-39
2023/06/20 06:20:29;;;;;;;30.67;4.93;;;;;;;24.20;59.80;99220.66;7310762;19;130031;-40
2023/06/20 06:22:55;;;;;;;38.50;5.00;;;;;;;24.20;59.37;99221.50;7316083;19;129355;-41
2023/06/20 06:25:21;;;;;;;54.90;5.57;;;;;;;24.26;60.39;99231.31;7313962;19;130099;-40
2023/06/20 06:27:46;;;;;;;46.77;5.07;;;;;;;24.24;59.21;99228.06;7316037;19;129351;-41
2023/06/20 06:30:14;;;;;;;44.07;5.07;;;;;;;24.27;59.09;99221.66;7309382;19;129532;-40
2023/06/20 06:32:40;;;;;;;40.63;5.20;;;;;;;24.27;59.40;99227.72;7315206;19;129870;-40
2023/06/20 06:35:07;;;;;;;60.33;5.80;;;;;;;24.32;59.92;99229.84;7313970;19;130716;-39
2023/06/20 06:37:33;;;;;;;33.45;4.63;;;;;;;24.28;59.28;99229.34;7315218;19;130818;-39
2023/06/20 06:39:59;;;;;;;36.60;4.38;;;;;;;24.30;59.20;99224.75;7311949;19;129499;-40
2023/06/20 06:42:25;;;;;;;41.43;5.20;;;;;;;24.31;59.36;99228.22;7314810;19;129021;-39
2023/06/20 06:44:51;;;;;;;36.72;4.45;;;;;;;24.34;59.64;99239.22;7314204;19;130459;-39
2023/06/20 06:47:16;;;;;;;55.10;5.87;;;;;;;24.34;60.11;99239.22;7314718;19;129247;-41
2023/06/20 06:49:42;;;;;;;28.27;4.43;;;;;;;24.35;59.17;99235.59;7311727;19;129324;-40
2023/06/20 06:52:09;;;;;;;52.00;5.50;;;;;;;24.35;60.04;99235.59;7310846;19;129206;-41
2023/06/20 06:54:35;;;;;;;82.70;6.90;;;;;;;24.25;59.96;99218.34;7311676;19;130048;-40
2023/06/20 06:57:00;;;;;;;37.60;4.60;;;;;;;24.35;59.66;99242.66;7314421;19;129153;-41
2023/06/20 06:59:26;;;;;;;37.23;4.40;;;;;;;24.34;59.68;99236.59;7312168;19;129390;-40
2023/06/20 07:01:51;;;;;;;48.07;5.43;;;;;;;24.39;59.76;99246.59;7313966;19;129233;-41
2023/06/20 07:04:17;;;;;;;37.03;5.07;;;;;;;24.36;60.53;99247.75;7314612;19;129739;-40
2023/06/20 07:06:42;;;;;;;41.50;5.27;;;;;;;24.38;59.80;99250.19;7314575;19;130770;-41
2023/06/20 07:09:07;;;;;;;30.27;4.97;;;;;;;24.35;60.37;99254.00;7311434;19;129415;-40
2023/06/20 07:11:33;;;;;;;121.43;9.67;;;;;;;24.34;60.30;99254.16;7307907;19;129459;-40
2023/06/20 07:13:58;;;;;;;70.07;6.93;;;;;;;24.33;60.38;99248.06;7313492;19;131099;-39
2023/06/20 07:16:25;;;;;;;36.53;5.53;;;;;;;24.38;59.80;99245.78;7311321;19;129681;-39
2023/06/20 07:18:50;;;;;;;;;;;;;;;24.48;60.32;99250.03;7311735;19;129978;-41
2023/06/20 07:21:17;;;;;;;47.10;6.10;;;;;;;24.44;59.89;99250.34;7312169;19;129357;-39
2023/06/20 07:23:42;;;;;;;36.33;5.83;;;;;;;24.42;59.32;99249.72;7314088;19;130320;-38
2023/06/20 07:26:07;;;;;;;49.07;6.10;;;;;;;24.47;59.45;99249.22;7312025;19;129367;-40
2023/06/20 07:28:33;;;;;;;40.87;5.90;;;;;;;24.47;59.05;99246.59;7312968;19;128847;-40
2023/06/20 07:30:58;;;;;;;41.37;6.00;;;;;;;24.45;58.77;99245.94;7310898;19;130099;-39
2023/06/20 07:33:23;;;;;;;32.60;5.80;;;;;;;24.43;59.02;99253.97;7311669;19;129234;-41
2023/06/20 07:35:49;;;;;;;51.55;6.90;;;;;;;24.40;60.01;99253.50;7312447;19;129769;-41
2023/06/20 07:38:14;;;;;;;38.83;5.90;;;;;;;24.35;59.71;99261.03;7312064;19;129316;-37
2023/06/20 07:40:40;;;;;;;51.40;6.23;;;;;;;24.37;59.42;99264.34;7309633;19;129172;-39
2023/06/20 07:43:06;;;;;;;35.50;5.77;;;;;;;24.38;60.29;99261.53;7313201;19;129432;-40
2023/06/20 07:45:31;;;;;;;34.77;5.70;;;;;;;24.40;59.59;99259.56;7313456;19;129976;-41
2023/06/20 07:47:56;;;;;;;79.83;8.13;;;;;;;24.44;59.48;99260.88;7309785;19;129588;-39
2023/06/20 07:50:22;;;;;;;42.00;5.77;;;;;;;24.41;59.50;99255.94;7310408;19;129137;-40
2023/06/20 07:52:48;;;;;;;42.30;5.70;;;;;;;24.33;59.19;99234.94;7312168;19;129120;-39
2023/06/20 07:55:13;;;;;;;32.43;5.13;;;;;;;24.41;59.24;99249.91;7313381;19;129704;-41
2023/06/20 07:57:39;;;;;;;105.10;9.63;;;;;;;24.43;60.14;99245.25;7310579;19;129346;-38
2023/06/20 08:00:09;;;;;;;105.37;9.93;;;;;;;24.45;60.02;99252.00;7292951;19;131349;-37
2023/06/20 08:02:34;;;;;;;80.80;8.35;;;;;;;24.40;59.61;99256.94;7297797;19;131338;-40
2023/06/20 08:04:59;;;;;;;42.40;5.73;;;;;;;24.41;59.20;99266.47;7310475;19;129601;-41
2023/06/20 08:07:25;;;;;;;54.33;5.97;;;;;;;24.42;59.64;99267.28;7312352;19;129394;-39
2023/06/20 08:09:50;;;;;;;36.37;5.33;;;;;;;24.45;59.52;99273.03;7310111;19;131396;-40
2023/06/20 08:12:15;;;;;;;70.93;8.00;;;;;;;24.47;59.64;99267.63;7308935;19;129255;-39
2023/06/20 08:14:41;;;;;;;42.63;5.80;;;;;;;24.43;59.96;99280.25;7311393;19;129366;-41
2023/06/20 08:17:06;;;;;;;49.73;6.57;;;;;;;24.31;60.09;99270.25;7312916;19;129276;-40
2023/06/20 08:19:31;;;;;;;38.33;6.00;;;;;;;24.45;59.41;99309.00;7309601;19;129917;-39
2023/06/20 08:21:57;;;;;;;33.42;5.93;;;;;;;24.49;59.84;99300.63;7312685;19;129620;-40
2023/06/20 08:24:22;;;;;;;41.80;6.70;;;;;;;24.49;59.67;99295.34;7310000;19;129231;-40
2023/06/20 08:26:47;;;;;;;52.10;6.43;;;;;;;24.59;59.84;99307.53;7311991;19;129673;-40
2023/06/20 08:29:14;;;;;;;48.90;7.27;;;;;;;24.53;59.56;99311.63;7308873;19;129755;-40
2023/06/20 08:31:40;;;;;;;77.63;8.80;;;;;;;24.54;59.48;99296.69;7314336;19;130802;-40
2023/06/20 08:34:06;;;;;;;93.87;9.70;;;;;;;24.54;59.73;99302.78;7314577;19;130009;-39
2023/06/20 08:36:32;;;;;;;69.13;7.57;;;;;;;24.58;60.01;99304.06;7316504;19;129643;-40
2023/06/20 08:39:00;;;;;;;35.50;6.18;;;;;;;24.60;59.49;99304.72;7313421;19;129042;-35
2023/06/20 08:41:28;;;;;;;38.75;6.78;;;;;;;24.57;59.38;99301.59;7316923;19;129830;-43
2023/06/20 08:43:53;;;;;;;82.47;9.13;;;;;;;24.63;59.83;99300.94;7318837;19;129721;-40
2023/06/20 08:46:20;;;;;;;103.67;10.63;;;;;;;24.65;60.11;99298.97;7316907;19;129765;-38
2023/06/20 08:48:46;;;;;;;87.03;9.52;;;;;;;24.66;59.14;99301.41;7308020;19;129620;-36
2023/06/20 08:51:16;;;;;;;34.50;6.75;;;;;;;24.61;59.81;99302.94;7315198;19;129592;-35
2023/06/20 08:53:45;;;;;;;41.88;7.22;;;;;;;24.64;59.89;99313.09;7317016;19;130891;-38
2023/06/20 08:56:10;;;;;;;86.38;9.27;;;;;;;24.58;59.65;99287.50;7318068;19;129070;-35
2023/06/20 08:58:36;;;;;;;54.40;7.53;;;;;;;24.61;59.43;99289.78;7316449;19;129951;-39
2023/06/20 09:01:01;;;;;;;47.03;7.33;;;;;;;24.78;59.85;99304.56;7319813;19;129769;-36
2023/06/20 09:03:27;;;;;;;54.33;7.23;;;;;;;24.74;59.74;99308.53;7320014;19;129553;-40
2023/06/20 09:05:52;;;;;;;43.90;7.23;;;;;;;24.71;59.71;99308.84;7324362;19;130824;-37
2023/06/20 09:08:17;;;;;;;38.93;6.87;;;;;;;24.68;59.83;99311.78;7320378;19;128981;-36
2023/06/20 09:10:45;;;;;;;64.70;8.17;;;;;;;24.67;59.27;99307.50;7320860;19;129524;-41
2023/06/20 09:13:12;;;;;;;101.50;9.10;;;;;;;24.71;59.88;99314.13;7319767;19;130352;-67
2023/06/20 09:15:38;;;;;;;87.93;8.27;;;;;;;24.71;59.80;99314.13;7314748;19;129041;-68
2023/06/20 09:18:06;;;;;;;64.97;7.73;;;;;;;24.73;59.83;99312.13;7315197;19;129376;-71
2023/06/20 09:20:31;;;;;;;60.80;7.05;;;;;;;24.75;59.79;99312.78;7313480;19;130155;-67
2023/06/20 09:22:58;;;;;;;77.83;7.97;;;;;;;24.74;59.15;99308.53;7312521;19;129667;-65
2023/06/20 09:25:25;;;;;;;111.53;9.43;;;;;;;24.65;59.21;99304.22;7310578;19;130386;-67
2023/06/20 09:27:52;;;;;;;90.70;8.45;;;;;;;24.72;59.83;99321.84;7314890;19;129632;-66
2023/06/20 09:30:17;;;;;;;180.95;14.45;;;;;;;24.65;59.50;99309.47;7314113;19;131927;-72
2023/06/20 09:32:43;;;;;;;32.63;6.20;;;;;;;24.70;59.55;99318.53;7322451;19;129282;-66
2023/06/20 09:35:10;;;;;;;53.50;6.70;;;;;;;24.70;59.74;99320.34;7317984;19;129498;-73
2023/06/20 09:37:47;;;;;;;83.05;8.48;;;;;;;24.76;59.52;99317.06;7317996;19;128953;-68
2023/06/20 09:40:17;;;;;;;39.88;6.10;;;;;;;24.76;60.12;99323.13;7314029;19;132230;-69
2023/06/20 09:42:44;;;;;;;30.77;5.93;;;;;;;24.78;59.56;99336.09;7317924;19;129265;-69
2023/06/20 09:45:11;;;;;;;69.38;7.50;;;;;;;24.78;59.72;99336.09;7315388;19;130115;-67
2023/06/20 09:47:39;;;;;;;98.15;8.25;;;;;;;24.77;59.95;99334.47;7318503;19;129122;-72
2023/06/20 09:50:10;;;;;;;51.13;6.63;;;;;;;24.77;60.13;99329.22;7314235;19;130097;-71
2023/06/20 09:52:45;;;;;;;34.65;5.75;;;;;;;24.74;60.40;99340.06;7312735;19;132016;-68
2023/06/20 09:55:15;;;;;;;69.22;7.07;;;;;;;24.78;59.59;99341.38;7315805;19;130159;-66
2023/06/20 10:00:14;;;;;;;40.05;6.35;;;;;;;24.82;59.99;99343.53;7313219;19;157222;-69
2023/06/20 10:02:47;;;;;;;92.47;9.25;;;;;;;24.79;59.95;99338.56;7313456;19;129706;-65
2023/06/20 10:05:18;;;;;;;70.68;8.27;;;;;;;24.78;59.08;99339.56;7315803;19;130632;-63
2023/06/20 10:07:45;;;;;;;40.03;6.88;;;;;;;24.78;60.06;99341.38;7309904;19;131813;-67
2023/06/20 10:10:12;;;;;;;82.97;8.48;;;;;;;24.79;60.43;99332.50;7309528;19;129259;-65
2023/06/20 10:12:39;;;;;;;92.15;7.88;;;;;;;24.81;59.70;99330.53;7306371;19;130093;-67
2023/06/20 10:15:07;;;;;;;187.18;13.80;;;;;;;24.71;59.83;99314.13;7309851;19;129352;-67
2023/06/20 10:17:48;;;;;;;61.30;7.38;;;;;;;24.78;60.38;99320.34;7304405;19;129960;-67
2023/06/20 10:20:43;;;;;;;103.28;9.52;;;;;;;24.84;60.26;99312.59;7309153;19;129717;-67
2023/06/20 10:23:10;;;;;;;85.72;8.07;;;;;;;24.85;60.33;99316.06;7310077;19;129941;-65
2023/06/20 10:25:49;;;;;;;127.28;10.35;;;;;;;24.84;60.62;99314.44;7307676;19;129674;-66
2023/06/20 10:28:14;;;;;;;86.95;8.75;;;;;;;24.79;60.55;99306.22;7308711;19;129379;-66
2023/06/20 10:30:46;;;;;;;127.63;10.87;;;;;;;24.83;60.45;99307.50;7304801;19;130213;-66
2023/06/20 10:33:11;;;;;;;85.05;8.13;;;;;;;24.82;59.60;99311.97;7308130;19;132305;-67
2023/06/20 10:35:52;;;;;;;148.30;12.00;;;;;;;24.81;60.67;99312.94;7311244;19;129865;-70
2023/06/20 10:38:18;;;;;;;103.03;8.77;;;;;;;24.83;59.70;99315.38;7312969;19;128968;-70
2023/06/20 10:40:44;;;;;;;94.90;8.50;;;;;;;24.86;60.24;99312.47;7314663;19;129595;-66
2023/06/20 10:43:16;;;;;;;23.90;5.77;;;;;;;24.82;60.09;99309.34;7312999;19;129198;-67
2023/06/20 10:45:59;;;;;;;10.10;5.00;;;;;;;24.69;60.72;99287.16;7316169;19;129215;-66
2023/06/20 10:48:26;;;;;;;73.65;7.82;;;;;;;24.80;60.39;99307.84;7313371;19;128862;-71
2023/06/20 10:51:01;;;;;;;41.88;6.30;;;;;;;24.80;60.64;99310.47;7312159;19;129404;-69
2023/06/20 10:53:30;;;;;;;100.07;8.68;;;;;;;24.80;59.66;99299.94;7313085;19;132401;-70
2023/06/20 10:55:55;;;;;;;77.93;7.70;;;;;;;24.78;60.28;99299.28;7317226;19;129187;-68
2023/06/20 10:58:20;;;;;;;98.60;9.23;;;;;;;24.81;59.48;99294.53;7311016;19;129131;-65
2023/06/20 11:00:47;;;;;;;32.53;5.30;;;;;;;24.83;59.88;99302.25;7309932;19;129195;-65
2023/06/20 11:03:13;;;;;;;60.45;7.20;;;;;;;24.79;59.58;99303.59;7312383;19;129177;-66
2023/06/20 11:05:39;;;;;;;70.63;7.30;;;;;;;24.79;59.79;99306.22;7305193;19;129079;-67
2023/06/20 11:08:05;;;;;;;104.33;9.50;;;;;;;24.80;59.38;99307.84;7308040;19;129883;-66
2023/06/20 11:10:36;;;;;;;118.50;9.35;;;;;;;24.81;60.09;99299.78;7307058;19;129320;-67
2023/06/20 11:13:06;;;;;;;46.70;5.88;;;;;;;24.88;59.40;99300.75;7308822;19;131849;-68
2023/06/20 11:15:36;;;;;;;51.00;6.78;;;;;;;24.83;59.62;99294.34;7304307;19;129816;-67
2023/06/20 11:18:06;;;;;;;126.43;10.55;;;;;;;24.83;60.33;99295.19;7308877;19;129800;-71
2023/06/20 11:20:39;;;;;;;60.00;7.45;;;;;;;24.81;60.18;99291.09;7307414;19;132048;-66